sensor_id;sensor_type;location;lat;lon;timestamp;pressure;altitude;pressure_sealevel;temperature;humidity
21276;BME280;36472;52.170;20.884;2023-12-07T00:01:15;100793.59;;;1.42;82.72
21276;BME280;36472;52.170;20.884;2023-12-07T00:03:45;100799.59;;;1.43;83.25
21276;BME280;36472;52.170;20.884;2023-12-07T00:06:14;100802.16;;;1.44;83.13
21276;BME280;36472;52.170;20.884;2023-12-07T00:08:43;100810.00;;;1.41;83.30
21276;BME280;36472;52.170;20.884;2023-12-07T00:11:12;100797.06;;;1.41;83.53
21276;BME280;36472;52.170;20.884;2023-12-07T00:13:41;100807.31;;;1.46;83.90
21276;BME280;36472;52.170;20.884;2023-12-07T00:16:10;100806.38;;;1.48;83.42
21276;BME280;36472;52.170;20.884;2023-12-07T00:18:39;100798.56;;;1.52;83.22
21276;BME280;36472;52.170;20.884;2023-12-07T00:21:10;100813.22;;;1.53;83.56
21276;BME280;36472;52.170;20.884;2023-12-07T00:23:39;100817.38;;;1.60;82.88
21276;BME280;36472;52.170;20.884;2023-12-07T00:26:08;100809.66;;;1.58;82.81
21276;BME280;36472;52.170;20.884;2023-12-07T00:28:38;100816.66;;;1.53;83.33
21276;BME280;36472;52.170;20.884;2023-12-07T00:31:07;100804.53;;;1.55;82.88
21276;BME280;36472;52.170;20.884;2023-12-07T00:33:38;100815.59;;;1.63;82.80
21276;BME280;36472;52.170;20.884;2023-12-07T00:36:09;100808.84;;;1.56;82.89
21276;BME280;36472;52.170;20.884;2023-12-07T00:38:40;100807.09;;;1.57;83.00
21276;BME280;36472;52.170;20.884;2023-12-07T00:41:09;100810.50;;;1.59;82.67
21276;BME280;36472;52.170;20.884;2023-12-07T00:43:38;100801.75;;;1.64;82.99
21276;BME280;36472;52.170;20.884;2023-12-07T00:46:08;100803.41;;;1.67;82.64
21276;BME280;36472;52.170;20.884;2023-12-07T00:48:37;100806.75;;;1.72;82.30
21276;BME280;36472;52.170;20.884;2023-12-07T00:51:06;100805.22;;;1.63;82.52
21276;BME280;36472;52.170;20.884;2023-12-07T00:53:36;100806.75;;;1.72;82.82
21276;BME280;36472;52.170;20.884;2023-12-07T00:56:07;100807.63;;;1.73;82.65
21276;BME280;36472;52.170;20.884;2023-12-07T00:58:36;100812.75;;;1.74;82.59
21276;BME280;36472;52.170;20.884;2023-12-07T01:01:06;100811.06;;;1.73;82.79
21276;BME280;36472;52.170;20.884;2023-12-07T01:03:35;100816.44;;;1.64;82.89
21276;BME280;36472;52.170;20.884;2023-12-07T01:06:08;100812.97;;;1.65;82.95
21276;BME280;36472;52.170;20.884;2023-12-07T01:08:40;100817.94;;;1.74;83.21
21276;BME280;36472;52.170;20.884;2023-12-07T01:11:10;100817.88;;;1.77;83.22
21276;BME280;36472;52.170;20.884;2023-12-07T01:13:39;100818.69;;;1.79;82.97
21276;BME280;36472;52.170;20.884;2023-12-07T01:16:08;100816.44;;;1.64;83.46
21276;BME280;36472;52.170;20.884;2023-12-07T01:18:37;100818.25;;;1.59;84.04
21276;BME280;36472;52.170;20.884;2023-12-07T01:21:06;100817.31;;;1.63;84.05
21276;BME280;36472;52.170;20.884;2023-12-07T01:23:35;100812.16;;;1.63;84.36
21276;BME280;36472;52.170;20.884;2023-12-07T01:26:06;100813.06;;;1.59;84.48
21276;BME280;36472;52.170;20.884;2023-12-07T01:28:35;100819.75;;;1.69;84.18
21276;BME280;36472;52.170;20.884;2023-12-07T01:31:04;100818.03;;;1.71;84.37
21276;BME280;36472;52.170;20.884;2023-12-07T01:33:33;100811.25;;;1.64;84.90
21276;BME280;36472;52.170;20.884;2023-12-07T01:36:03;100804.19;;;1.71;84.77
21276;BME280;36472;52.170;20.884;2023-12-07T01:38:32;100812.75;;;1.74;85.11
21276;BME280;36472;52.170;20.884;2023-12-07T01:41:01;100807.75;;;1.66;84.71
21276;BME280;36472;52.170;20.884;2023-12-07T01:43:31;100812.16;;;1.63;85.15
21276;BME280;36472;52.170;20.884;2023-12-07T01:46:01;100801.72;;;1.66;85.57
21276;BME280;36472;52.170;20.884;2023-12-07T01:48:30;100797.59;;;1.57;85.89
21276;BME280;36472;52.170;20.884;2023-12-07T01:51:00;100808.03;;;1.53;86.16
21276;BME280;36472;52.170;20.884;2023-12-07T01:53:29;100797.53;;;1.59;86.23
21276;BME280;36472;52.170;20.884;2023-12-07T01:55:59;100800.94;;;1.62;86.52
21276;BME280;36472;52.170;20.884;2023-12-07T01:58:28;100805.06;;;1.71;86.19
21276;BME280;36472;52.170;20.884;2023-12-07T02:00:59;100804.09;;;1.75;86.10
21276;BME280;36472;52.170;20.884;2023-12-07T02:03:28;100804.91;;;1.77;85.98
21276;BME280;36472;52.170;20.884;2023-12-07T02:05:58;100798.03;;;1.76;85.94
21276;BME280;36472;52.170;20.884;2023-12-07T02:08:27;100795.44;;;1.76;85.61
21276;BME280;36472;52.170;20.884;2023-12-07T02:10:56;100797.25;;;1.73;86.52
21276;BME280;36472;52.170;20.884;2023-12-07T02:13:25;100808.31;;;1.79;86.09
21276;BME280;36472;52.170;20.884;2023-12-07T02:15:58;100802.25;;;1.80;86.15
21276;BME280;36472;52.170;20.884;2023-12-07T02:18:38;100803.22;;;1.76;86.55
21276;BME280;36472;52.170;20.884;2023-12-07T02:21:18;100800.59;;;1.78;86.31
21276;BME280;36472;52.170;20.884;2023-12-07T02:23:51;100808.47;;;1.73;86.52
21276;BME280;36472;52.170;20.884;2023-12-07T02:26:28;100803.34;;;1.70;86.69
21276;BME280;36472;52.170;20.884;2023-12-07T02:28:58;100810.91;;;1.79;86.73
21276;BME280;36472;52.170;20.884;2023-12-07T02:31:28;100814.47;;;1.75;87.07
21276;BME280;36472;52.170;20.884;2023-12-07T02:33:57;100814.38;;;1.80;86.73
21276;BME280;36472;52.170;20.884;2023-12-07T02:36:30;100814.31;;;1.83;86.63
21276;BME280;36472;52.170;20.884;2023-12-07T02:39:01;100814.53;;;1.72;86.98
21276;BME280;36472;52.170;20.884;2023-12-07T02:41:35;100816.91;;;1.83;86.72
21276;BME280;36472;52.170;20.884;2023-12-07T02:44:05;100819.59;;;1.78;86.90
21276;BME280;36472;52.170;20.884;2023-12-07T02:46:35;100813.44;;;1.82;86.96
21276;BME280;36472;52.170;20.884;2023-12-07T02:49:04;100812.38;;;1.91;86.51
21276;BME280;36472;52.170;20.884;2023-12-07T02:51:33;100815.94;;;1.87;86.52
21276;BME280;36472;52.170;20.884;2023-12-07T02:54:02;100814.16;;;1.89;86.45
21276;BME280;36472;52.170;20.884;2023-12-07T02:56:33;100817.41;;;1.99;86.27
21276;BME280;36472;52.170;20.884;2023-12-07T02:59:01;100821.72;;;2.00;86.21
21276;BME280;36472;52.170;20.884;2023-12-07T03:01:31;100814.75;;;2.02;85.89
21276;BME280;36472;52.170;20.884;2023-12-07T03:04:00;100814.00;;;1.97;86.11
21276;BME280;36472;52.170;20.884;2023-12-07T03:06:29;100810.63;;;1.93;86.26
21276;BME280;36472;52.170;20.884;2023-12-07T03:08:58;100816.66;;;1.94;86.47
21276;BME280;36472;52.170;20.884;2023-12-07T03:11:27;100811.44;;;1.95;85.98
21276;BME280;36472;52.170;20.884;2023-12-07T03:13:57;100809.00;;;1.87;86.36
21276;BME280;36472;52.170;20.884;2023-12-07T03:16:26;100808.03;;;1.93;86.61
21276;BME280;36472;52.170;20.884;2023-12-07T03:18:55;100799.31;;;1.96;86.50
21276;BME280;36472;52.170;20.884;2023-12-07T03:21:24;100809.91;;;1.86;86.50
21276;BME280;36472;52.170;20.884;2023-12-07T03:23:53;100818.50;;;1.89;86.61
21276;BME280;36472;52.170;20.884;2023-12-07T03:26:22;100815.00;;;1.90;87.04
21276;BME280;36472;52.170;20.884;2023-12-07T03:28:51;100818.47;;;1.90;86.81
21276;BME280;36472;52.170;20.884;2023-12-07T03:31:24;100826.16;;;1.93;86.76
21276;BME280;36472;52.170;20.884;2023-12-07T03:34:16;100802.13;;;1.86;86.66
21276;BME280;36472;52.170;20.884;2023-12-07T03:36:46;100820.88;;;1.98;86.81
21276;BME280;36472;52.170;20.884;2023-12-07T03:39:16;100822.66;;;1.94;86.45
21276;BME280;36472;52.170;20.884;2023-12-07T03:41:46;100825.28;;;1.93;86.98
21276;BME280;36472;52.170;20.884;2023-12-07T03:44:15;100824.41;;;1.95;86.46
21276;BME280;36472;52.170;20.884;2023-12-07T03:46:46;100816.66;;;1.94;86.78
21276;BME280;36472;52.170;20.884;2023-12-07T03:49:15;100820.84;;;1.99;86.66
21276;BME280;36472;52.170;20.884;2023-12-07T03:51:45;100814.16;;;1.89;86.29
21276;BME280;36472;52.170;20.884;2023-12-07T03:54:13;100828.63;;;1.98;87.01
21276;BME280;36472;52.170;20.884;2023-12-07T03:56:42;100829.03;;;1.79;86.71
21276;BME280;36472;52.170;20.884;2023-12-07T03:59:11;100817.66;;;1.88;87.08
21276;BME280;36472;52.170;20.884;2023-12-07T04:01:40;100825.44;;;1.86;87.27
21276;BME280;36472;52.170;20.884;2023-12-07T04:04:11;100821.91;;;1.91;87.04
21276;BME280;36472;52.170;20.884;2023-12-07T04:06:40;100816.84;;;1.84;87.57
21276;BME280;36472;52.170;20.884;2023-12-07T04:09:09;100819.53;;;1.81;87.32
21276;BME280;36472;52.170;20.884;2023-12-07T04:11:38;100828.81;;;1.90;87.70
21276;BME280;36472;52.170;20.884;2023-12-07T04:14:07;100827.16;;;1.86;87.82
21276;BME280;36472;52.170;20.884;2023-12-07T04:16:36;100828.97;;;1.82;87.74
21276;BME280;36472;52.170;20.884;2023-12-07T04:19:05;100825.91;;;1.65;88.30
21276;BME280;36472;52.170;20.884;2023-12-07T04:21:35;100827.34;;;1.78;88.60
21276;BME280;36472;52.170;20.884;2023-12-07T04:24:05;100826.63;;;1.72;88.52
21276;BME280;36472;52.170;20.884;2023-12-07T04:26:34;100824.78;;;1.78;88.35
21276;BME280;36472;52.170;20.884;2023-12-07T04:29:03;100820.63;;;1.71;88.96
21276;BME280;36472;52.170;20.884;2023-12-07T04:31:33;100801.59;;;1.71;88.96
21276;BME280;36472;52.170;20.884;2023-12-07T04:34:03;100817.13;;;1.72;88.77
21276;BME280;36472;52.170;20.884;2023-12-07T04:36:34;100815.53;;;1.66;88.77
21276;BME280;36472;52.170;20.884;2023-12-07T04:39:03;100817.13;;;1.72;89.31
21276;BME280;36472;52.170;20.884;2023-12-07T04:41:32;100817.91;;;1.76;89.24
21276;BME280;36472;52.170;20.884;2023-12-07T04:44:01;100817.00;;;1.78;89.21
21276;BME280;36472;52.170;20.884;2023-12-07T04:46:30;100826.59;;;1.73;88.97
21276;BME280;36472;52.170;20.884;2023-12-07T04:48:59;100822.28;;;1.72;89.46
21276;BME280;36472;52.170;20.884;2023-12-07T04:51:28;100828.19;;;1.79;89.22
21276;BME280;36472;52.170;20.884;2023-12-07T04:53:59;100824.69;;;1.81;89.23
21276;BME280;36472;52.170;20.884;2023-12-07T04:56:43;100826.38;;;1.84;88.76
21276;BME280;36472;52.170;20.884;2023-12-07T04:59:12;100823.88;;;1.79;88.71
21276;BME280;36472;52.170;20.884;2023-12-07T05:01:41;100831.78;;;1.73;88.94
21276;BME280;36472;52.170;20.884;2023-12-07T05:04:10;100829.19;;;1.73;89.41
21276;BME280;36472;52.170;20.884;2023-12-07T05:06:39;100834.31;;;1.76;89.13
21276;BME280;36472;52.170;20.884;2023-12-07T05:09:09;100828.34;;;1.73;89.27
21276;BME280;36472;52.170;20.884;2023-12-07T05:11:39;100823.13;;;1.74;89.21
21276;BME280;36472;52.170;20.884;2023-12-07T05:14:08;100832.16;;;1.56;89.48
21276;BME280;36472;52.170;20.884;2023-12-07T05:16:37;100835.38;;;1.67;89.45
21276;BME280;36472;52.170;20.884;2023-12-07T05:19:06;100840.41;;;1.74;89.27
21276;BME280;36472;52.170;20.884;2023-12-07T05:21:37;100837.88;;;1.71;89.46
21276;BME280;36472;52.170;20.884;2023-12-07T05:24:06;100846.38;;;1.77;88.80
21276;BME280;36472;52.170;20.884;2023-12-07T05:26:37;100848.91;;;1.80;88.74
21276;BME280;36472;52.170;20.884;2023-12-07T05:29:07;100837.88;;;1.71;89.13
21276;BME280;36472;52.170;20.884;2023-12-07T05:31:36;100842.13;;;1.75;88.80
21276;BME280;36472;52.170;20.884;2023-12-07T05:34:05;100842.97;;;1.75;89.09
21276;BME280;36472;52.170;20.884;2023-12-07T05:36:35;100845.50;;;1.78;89.10
21276;BME280;36472;52.170;20.884;2023-12-07T05:39:04;100842.88;;;1.80;88.95
21276;BME280;36472;52.170;20.884;2023-12-07T05:41:36;100846.66;;;1.65;89.21
21276;BME280;36472;52.170;20.884;2023-12-07T05:44:05;100854.34;;;1.68;89.05
21276;BME280;36472;52.170;20.884;2023-12-07T05:46:35;100849.88;;;1.76;89.15
21276;BME280;36472;52.170;20.884;2023-12-07T05:49:05;100853.22;;;1.81;88.92
21276;BME280;36472;52.170;20.884;2023-12-07T05:51:35;100854.91;;;1.82;88.59
21276;BME280;36472;52.170;20.884;2023-12-07T05:54:03;100861.81;;;1.83;88.54
21276;BME280;36472;52.170;20.884;2023-12-07T05:56:33;100858.47;;;1.78;88.78
21276;BME280;36472;52.170;20.884;2023-12-07T05:59:03;100854.97;;;1.79;88.66
21276;BME280;36472;52.170;20.884;2023-12-07T06:01:33;100861.03;;;1.80;88.67
21276;BME280;36472;52.170;20.884;2023-12-07T06:04:02;100872.13;;;1.85;88.67
21276;BME280;36472;52.170;20.884;2023-12-07T06:06:31;100867.81;;;1.85;88.70
21276;BME280;36472;52.170;20.884;2023-12-07T06:09:00;100867.78;;;1.87;88.82
21276;BME280;36472;52.170;20.884;2023-12-07T06:11:29;100865.28;;;1.82;88.83
21276;BME280;36472;52.170;20.884;2023-12-07T06:13:58;100869.41;;;1.91;88.43
21276;BME280;36472;52.170;20.884;2023-12-07T06:16:29;100873.63;;;1.97;88.45
21276;BME280;36472;52.170;20.884;2023-12-07T06:18:58;100883.94;;;2.00;88.01
21276;BME280;36472;52.170;20.884;2023-12-07T06:21:27;100887.31;;;2.03;87.89
21276;BME280;36472;52.170;20.884;2023-12-07T06:23:57;100894.41;;;1.94;88.05
21276;BME280;36472;52.170;20.884;2023-12-07T06:26:27;100886.59;;;1.95;87.77
21276;BME280;36472;52.170;20.884;2023-12-07T06:28:56;100892.66;;;1.94;87.92
21276;BME280;36472;52.170;20.884;2023-12-07T06:31:26;100894.22;;;2.01;88.09
21276;BME280;36472;52.170;20.884;2023-12-07T06:33:56;100898.63;;;1.98;87.74
21276;BME280;36472;52.170;20.884;2023-12-07T06:36:25;100898.63;;;1.98;87.84
21276;BME280;36472;52.170;20.884;2023-12-07T06:38:54;100896.75;;;2.04;88.09
21276;BME280;36472;52.170;20.884;2023-12-07T06:41:23;100904.44;;;2.09;87.96
21276;BME280;36472;52.170;20.884;2023-12-07T06:43:52;100897.50;;;2.11;88.04
21276;BME280;36472;52.170;20.884;2023-12-07T06:46:23;100894.19;;;2.03;87.79
21276;BME280;36472;52.170;20.884;2023-12-07T06:48:52;100899.66;;;1.91;88.44
21276;BME280;36472;52.170;20.884;2023-12-07T06:51:23;100910.75;;;1.97;88.72
21276;BME280;36472;52.170;20.884;2023-12-07T06:53:52;100901.22;;;1.98;88.50
21276;BME280;36472;52.170;20.884;2023-12-07T06:56:21;100913.38;;;1.96;88.73
21276;BME280;36472;52.170;20.884;2023-12-07T06:58:50;100911.47;;;2.04;89.02
21276;BME280;36472;52.170;20.884;2023-12-07T07:01:19;100906.31;;;2.02;88.84
21276;BME280;36472;52.170;20.884;2023-12-07T07:03:48;100910.53;;;2.06;88.65
21276;BME280;36472;52.170;20.884;2023-12-07T07:06:17;100907.00;;;2.11;88.49
21276;BME280;36472;52.170;20.884;2023-12-07T07:08:48;100910.34;;;2.16;88.37
21276;BME280;36472;52.170;20.884;2023-12-07T07:11:17;100913.84;;;2.13;88.31
21276;BME280;36472;52.170;20.884;2023-12-07T07:13:46;100916.31;;;2.19;88.65
21276;BME280;36472;52.170;20.884;2023-12-07T07:16:15;100918.84;;;2.22;88.60
21276;BME280;36472;52.170;20.884;2023-12-07T07:18:44;100919.69;;;2.23;88.34
21276;BME280;36472;52.170;20.884;2023-12-07T07:21:13;100912.78;;;2.22;88.29
21276;BME280;36472;52.170;20.884;2023-12-07T07:23:42;100911.91;;;2.23;88.33
21276;BME280;36472;52.170;20.884;2023-12-07T07:26:12;100910.88;;;2.30;87.65
21276;BME280;36472;52.170;20.884;2023-12-07T07:28:44;100917.00;;;2.28;88.10
21276;BME280;36472;52.170;20.884;2023-12-07T07:31:13;100904.91;;;2.27;88.01
21276;BME280;36472;52.170;20.884;2023-12-07T07:33:42;100914.47;;;2.24;88.16
21276;BME280;36472;52.170;20.884;2023-12-07T07:36:12;100915.44;;;2.20;88.49
21276;BME280;36472;52.170;20.884;2023-12-07T07:38:42;100913.66;;;2.22;88.33
21276;BME280;36472;52.170;20.884;2023-12-07T07:41:13;100916.31;;;2.19;88.11
21276;BME280;36472;52.170;20.884;2023-12-07T07:43:42;100904.25;;;2.18;88.71
21276;BME280;36472;52.170;20.884;2023-12-07T07:46:11;100904.03;;;2.28;88.50
21276;BME280;36472;52.170;20.884;2023-12-07T07:48:40;100904.16;;;2.21;88.19
21276;BME280;36472;52.170;20.884;2023-12-07T07:51:09;100911.94;;;2.21;88.91
21276;BME280;36472;52.170;20.884;2023-12-07T07:53:38;100893.84;;;2.18;89.03
21276;BME280;36472;52.170;20.884;2023-12-07T07:56:08;100910.09;;;2.27;88.82
21276;BME280;36472;52.170;20.884;2023-12-07T07:58:38;100910.91;;;2.29;88.66
21276;BME280;36472;52.170;20.884;2023-12-07T08:01:08;100915.91;;;2.38;89.02
21276;BME280;36472;52.170;20.884;2023-12-07T08:03:37;100925.34;;;2.40;88.46
21276;BME280;36472;52.170;20.884;2023-12-07T08:06:07;100907.22;;;2.39;88.58
21276;BME280;36472;52.170;20.884;2023-12-07T08:08:36;100914.13;;;2.40;88.46
21276;BME280;36472;52.170;20.884;2023-12-07T08:11:06;100911.34;;;2.48;88.08
21276;BME280;36472;52.170;20.884;2023-12-07T08:13:35;100912.28;;;2.45;87.87
21276;BME280;36472;52.170;20.884;2023-12-07T08:16:08;100915.19;;;2.31;88.54
21276;BME280;36472;52.170;20.884;2023-12-07T08:18:38;100913.28;;;2.39;88.51
21276;BME280;36472;52.170;20.884;2023-12-07T08:21:07;100925.19;;;2.48;88.42
21276;BME280;36472;52.170;20.884;2023-12-07T08:23:36;100929.50;;;2.48;87.93
21276;BME280;36472;52.170;20.884;2023-12-07T08:26:05;100928.63;;;2.49;87.89
21276;BME280;36472;52.170;20.884;2023-12-07T08:28:34;100929.31;;;2.57;88.08
21276;BME280;36472;52.170;20.884;2023-12-07T08:31:04;100931.00;;;2.58;87.68
21276;BME280;36472;52.170;20.884;2023-12-07T08:33:35;100944.13;;;2.52;87.72
21276;BME280;36472;52.170;20.884;2023-12-07T08:36:07;100944.97;;;2.52;87.33
21276;BME280;36472;52.170;20.884;2023-12-07T08:38:36;100945.75;;;2.56;87.51
21276;BME280;36472;52.170;20.884;2023-12-07T08:41:06;100948.31;;;2.57;87.48
21276;BME280;36472;52.170;20.884;2023-12-07T08:43:35;100942.44;;;2.49;87.76
21276;BME280;36472;52.170;20.884;2023-12-07T08:46:04;100943.13;;;2.57;87.36
21276;BME280;36472;52.170;20.884;2023-12-07T08:48:37;100937.91;;;2.59;87.30
21276;BME280;36472;52.170;20.884;2023-12-07T08:51:10;100930.94;;;2.61;87.11
21276;BME280;36472;52.170;20.884;2023-12-07T08:53:39;100929.25;;;2.60;87.11
21276;BME280;36472;52.170;20.884;2023-12-07T08:56:08;100928.22;;;2.66;87.26
21276;BME280;36472;52.170;20.884;2023-12-07T08:58:37;100933.16;;;2.76;86.73
21276;BME280;36472;52.170;20.884;2023-12-07T09:01:07;100934.06;;;2.75;86.84
21276;BME280;36472;52.170;20.884;2023-12-07T09:03:47;100932.19;;;2.82;86.43
21276;BME280;36472;52.170;20.884;2023-12-07T09:06:16;100931.16;;;2.88;86.60
21276;BME280;36472;52.170;20.884;2023-12-07T09:08:45;100934.88;;;2.77;86.79
21276;BME280;36472;52.170;20.884;2023-12-07T09:11:14;100934.09;;;2.74;86.25
21276;BME280;36472;52.170;20.884;2023-12-07T09:13:43;100933.06;;;2.81;86.79
21276;BME280;36472;52.170;20.884;2023-12-07T09:16:12;100935.50;;;2.87;86.66
21276;BME280;36472;52.170;20.884;2023-12-07T09:18:42;100936.22;;;2.94;86.65
21276;BME280;36472;52.170;20.884;2023-12-07T09:21:14;100944.31;;;2.80;86.36
21276;BME280;36472;52.170;20.884;2023-12-07T09:23:44;100937.44;;;2.79;86.65
21276;BME280;36472;52.170;20.884;2023-12-07T09:26:13;100946.75;;;2.88;86.27
21276;BME280;36472;52.170;20.884;2023-12-07T09:28:42;100944.25;;;2.83;86.39
21276;BME280;36472;52.170;20.884;2023-12-07T09:31:11;100939.75;;;2.90;86.45
21276;BME280;36472;52.170;20.884;2023-12-07T09:33:40;100940.91;;;2.78;86.68
21276;BME280;36472;52.170;20.884;2023-12-07T09:36:10;100936.38;;;2.86;85.96
21276;BME280;36472;52.170;20.884;2023-12-07T09:38:40;100933.25;;;2.73;86.19
21276;BME280;36472;52.170;20.884;2023-12-07T09:41:10;100933.91;;;2.81;86.49
21276;BME280;36472;52.170;20.884;2023-12-07T09:43:39;100932.31;;;2.76;86.36
21276;BME280;36472;52.170;20.884;2023-12-07T09:46:09;100921.91;;;2.77;86.22
21276;BME280;36472;52.170;20.884;2023-12-07T09:48:43;100937.13;;;2.91;86.22
21276;BME280;36472;52.170;20.884;2023-12-07T09:51:15;100931.78;;;2.97;86.03
21276;BME280;36472;52.170;20.884;2023-12-07T09:53:48;100926.75;;;2.91;86.17
21276;BME280;36472;52.170;20.884;2023-12-07T09:56:20;100938.66;;;2.98;86.12
21276;BME280;36472;52.170;20.884;2023-12-07T09:58:49;100941.16;;;3.03;86.43
21276;BME280;36472;52.170;20.884;2023-12-07T10:01:18;100944.03;;;2.92;86.21
21276;BME280;36472;52.170;20.884;2023-12-07T10:03:47;100940.50;;;2.95;86.19
21276;BME280;36472;52.170;20.884;2023-12-07T10:06:17;100945.78;;;2.90;85.99
21276;BME280;36472;52.170;20.884;2023-12-07T10:08:47;100943.13;;;2.93;85.37
21276;BME280;36472;52.170;20.884;2023-12-07T10:11:16;100940.50;;;2.95;85.41
21276;BME280;36472;52.170;20.884;2023-12-07T10:13:46;100944.91;;;2.91;86.04
21276;BME280;36472;52.170;20.884;2023-12-07T10:16:16;100950.72;;;3.03;86.07
21276;BME280;36472;52.170;20.884;2023-12-07T10:18:47;100942.72;;;3.10;85.90
21276;BME280;36472;52.170;20.884;2023-12-07T10:21:32;100952.22;;;3.11;85.70
21276;BME280;36472;52.170;20.884;2023-12-07T10:24:03;100946.81;;;3.19;85.07
21276;BME280;36472;52.170;20.884;2023-12-07T10:26:33;100940.63;;;3.25;85.41
21276;BME280;36472;52.170;20.884;2023-12-07T10:29:05;100945.75;;;3.26;84.67
21276;BME280;36472;52.170;20.884;2023-12-07T10:31:41;100934.81;;;3.15;84.71
21276;BME280;36472;52.170;20.884;2023-12-07T10:34:11;100946.66;;;3.25;84.49
21276;BME280;36472;52.170;20.884;2023-12-07T10:36:40;100945.75;;;3.26;85.11
21276;BME280;36472;52.170;20.884;2023-12-07T10:39:12;100952.75;;;3.24;84.70
21276;BME280;36472;52.170;20.884;2023-12-07T10:41:52;100945.03;;;3.21;85.26
21276;BME280;36472;52.170;20.884;2023-12-07T10:44:28;100946.84;;;3.17;84.84
21276;BME280;36472;52.170;20.884;2023-12-07T10:46:58;100945.09;;;3.20;84.83
21276;BME280;36472;52.170;20.884;2023-12-07T10:49:27;100940.78;;;3.18;84.86
21276;BME280;36472;52.170;20.884;2023-12-07T10:52:07;100938.25;;;3.15;85.34
21276;BME280;36472;52.170;20.884;2023-12-07T10:54:46;100932.94;;;3.20;84.99
21276;BME280;36472;52.170;20.884;2023-12-07T10:57:21;100947.63;;;3.21;85.48
21276;BME280;36472;52.170;20.884;2023-12-07T10:59:52;100944.25;;;3.17;84.98
21276;BME280;36472;52.170;20.884;2023-12-07T11:02:24;100940.03;;;3.13;85.51
21276;BME280;36472;52.170;20.884;2023-12-07T11:04:57;100943.75;;;3.03;85.60
21276;BME280;36472;52.170;20.884;2023-12-07T11:07:38;100937.69;;;3.04;85.34
21276;BME280;36472;52.170;20.884;2023-12-07T11:10:23;100937.59;;;3.07;85.73
21276;BME280;36472;52.170;20.884;2023-12-07T11:13:06;100929.03;;;3.04;85.94
21276;BME280;36472;52.170;20.884;2023-12-07T11:15:38;100939.31;;;3.08;85.95
21276;BME280;36472;52.170;20.884;2023-12-07T11:18:07;100932.50;;;3.04;85.96
21276;BME280;36472;52.170;20.884;2023-12-07T11:20:44;100933.25;;;3.08;86.14
21276;BME280;36472;52.170;20.884;2023-12-07T11:23:17;100927.09;;;3.12;86.51
21276;BME280;36472;52.170;20.884;2023-12-07T11:25:49;100923.56;;;3.14;86.26
21276;BME280;36472;52.170;20.884;2023-12-07T11:28:34;100923.78;;;3.05;86.44
21276;BME280;36472;52.170;20.884;2023-12-07T11:31:05;100919.53;;;3.03;86.58
21276;BME280;36472;52.170;20.884;2023-12-07T11:33:38;100919.38;;;3.09;86.58
21276;BME280;36472;52.170;20.884;2023-12-07T11:36:09;100919.66;;;2.98;86.44
21276;BME280;36472;52.170;20.884;2023-12-07T11:41:54;100919.69;;;2.96;86.49
21276;BME280;36472;52.170;20.884;2023-12-07T11:44:32;100925.63;;;3.02;86.22
21276;BME280;36472;52.170;20.884;2023-12-07T11:47:02;100922.16;;;3.03;86.24
21276;BME280;36472;52.170;20.884;2023-12-07T11:49:31;100934.06;;;3.10;86.54
21276;BME280;36472;52.170;20.884;2023-12-07T11:52:14;100934.00;;;3.13;86.19
21276;BME280;36472;52.170;20.884;2023-12-07T11:54:44;100932.97;;;3.18;86.10
21276;BME280;36472;52.170;20.884;2023-12-07T11:57:16;100925.09;;;3.22;86.19
21276;BME280;36472;52.170;20.884;2023-12-07T11:59:46;100932.13;;;3.18;85.85
21276;BME280;36472;52.170;20.884;2023-12-07T12:02:16;100926.09;;;3.16;86.09
21276;BME280;36472;52.170;20.884;2023-12-07T12:04:46;100929.75;;;3.09;85.91
21276;BME280;36472;52.170;20.884;2023-12-07T12:07:15;100916.22;;;2.97;86.47
21276;BME280;36472;52.170;20.884;2023-12-07T12:09:44;100933.72;;;2.89;86.80
21276;BME280;36472;52.170;20.884;2023-12-07T12:12:14;100928.63;;;2.85;86.19
21276;BME280;36472;52.170;20.884;2023-12-07T12:14:44;100933.31;;;2.70;86.52
21276;BME280;36472;52.170;20.884;2023-12-07T12:17:15;100937.00;;;2.61;86.78
21276;BME280;36472;52.170;20.884;2023-12-07T12:19:44;100936.78;;;2.69;86.64
21276;BME280;36472;52.170;20.884;2023-12-07T12:22:13;100934.78;;;2.45;87.28
21276;BME280;36472;52.170;20.884;2023-12-07T12:24:43;100937.13;;;2.55;86.58
21276;BME280;36472;52.170;20.884;2023-12-07T12:27:12;100939.75;;;2.54;86.00
21276;BME280;36472;52.170;20.884;2023-12-07T12:29:43;100933.66;;;2.56;86.07
21276;BME280;36472;52.170;20.884;2023-12-07T12:32:14;100936.84;;;2.68;85.48
21276;BME280;36472;52.170;20.884;2023-12-07T12:34:43;100936.72;;;2.72;85.15
21276;BME280;36472;52.170;20.884;2023-12-07T12:37:12;100932.44;;;2.70;84.83
21276;BME280;36472;52.170;20.884;2023-12-07T12:39:42;100934.22;;;2.68;85.32
21276;BME280;36472;52.170;20.884;2023-12-07T12:42:11;100935.03;;;2.70;84.79
21276;BME280;36472;52.170;20.884;2023-12-07T12:44:43;100934.97;;;2.73;84.97
21276;BME280;36472;52.170;20.884;2023-12-07T12:47:13;100933.28;;;2.72;84.54
21276;BME280;36472;52.170;20.884;2023-12-07T12:49:42;100923.00;;;2.67;84.79
21276;BME280;36472;52.170;20.884;2023-12-07T12:52:16;100936.63;;;2.77;84.92
21276;BME280;36472;52.170;20.884;2023-12-07T12:54:45;100939.06;;;2.83;85.17
21276;BME280;36472;52.170;20.884;2023-12-07T12:57:17;100941.69;;;2.81;85.00
21276;BME280;36472;52.170;20.884;2023-12-07T12:59:50;100938.59;;;2.67;85.06
21276;BME280;36472;52.170;20.884;2023-12-07T13:02:19;100945.41;;;2.71;85.50
21276;BME280;36472;52.170;20.884;2023-12-07T13:04:49;100948.03;;;2.70;85.31
21276;BME280;36472;52.170;20.884;2023-12-07T13:07:19;100943.78;;;2.67;85.06
21276;BME280;36472;52.170;20.884;2023-12-07T13:09:49;100946.41;;;2.66;85.36